Time;durP1;ratioP1;P1;durP2;ratioP2;P2;SDS_P1;SDS_P2;PMS_P1;PMS_P2;Temp;Humidity;BMP_temperature;BMP_pressure;BME280_temperature;BME280_humidity;BME280_pressure;Samples;Min_cycle;Max_cycle;Signal;HPM_P1;HPM_P2
2021/12/27 00:00:27;;;;;;;13.95;12.05;;;;;;;4.43;82.43;99062.22;10205058;28;20067;-61
2021/12/27 00:05:29;;;;;;;14.15;12.65;;;;;;;4.51;82.55;99066.91;10211239;28;20040;-61
2021/12/27 00:10:31;;;;;;;15.00;12.13;;;;;;;4.54;82.21;99057.94;10222871;28;20139;-61
2021/12/27 00:15:34;;;;;;;15.05;12.30;;;;;;;4.53;82.29;99045.72;10220789;28;20138;-59
2021/12/27 00:20:35;;;;;;;13.07;11.60;;;;;;;4.53;82.34;99043.91;10206314;28;20051;-62
2021/12/27 00:25:37;;;;;;;14.25;12.60;;;;;;;4.55;82.30;99042.00;10221331;28;20044;-60
2021/12/27 00:30:38;;;;;;;14.35;12.85;;;;;;;4.51;82.37;99027.38;10217880;28;20069;-62
2021/12/27 00:35:41;;;;;;;15.60;13.15;;;;;;;4.63;82.50;99035.34;10224107;28;20141;-61
2021/12/27 00:40:43;;;;;;;13.45;12.15;;;;;;;4.63;82.52;99032.69;10216402;28;20134;-62
2021/12/27 00:45:44;;;;;;;14.52;12.30;;;;;;;4.63;83.05;99033.53;10207910;28;20067;-62
2021/12/27 00:50:46;;;;;;;17.23;12.75;;;;;;;4.63;83.01;99024.78;10205631;28;20118;-60
2021/12/27 00:55:47;;;;;;;13.57;11.80;;;;;;;4.71;82.87;99028.50;10219447;28;20133;-62
2021/12/27 01:00:49;;;;;;;14.95;12.85;;;;;;;4.73;83.04;99036.31;10207446;28;20510;-62
2021/12/27 01:05:51;;;;;;;14.05;12.35;;;;;;;4.74;83.11;99037.97;10216757;28;20073;-62
2021/12/27 01:11:23;;;;;;;14.52;11.65;;;;;;;4.76;82.99;99020.28;10206743;28;20584;-61
2021/12/27 01:16:24;;;;;;;13.65;11.23;;;;;;;4.78;82.75;99028.88;10221233;28;20293;-62
2021/12/27 01:21:26;;;;;;;13.45;12.02;;;;;;;4.76;82.82;99030.81;10215554;28;20047;-64
2021/12/27 01:26:28;;;;;;;13.57;10.63;;;;;;;4.66;82.61;99019.28;10203478;28;20079;-62
2021/12/27 01:31:29;;;;;;;13.43;11.70;;;;;;;4.78;82.80;99039.44;10217196;28;20047;-62
2021/12/27 01:36:32;;;;;;;12.70;10.60;;;;;;;4.70;82.83;99025.97;10232630;28;20101;-63
2021/12/27 01:41:33;;;;;;;12.00;10.77;;;;;;;4.80;82.78;99037.50;10207871;29;20051;-64
2021/12/27 01:46:36;;;;;;;12.82;11.07;;;;;;;4.80;83.04;99040.16;10216980;28;20074;-61
2021/12/27 01:51:40;;;;;;;13.05;11.32;;;;;;;4.76;82.90;99023.75;10221391;28;20055;-62
2021/12/27 01:56:41;;;;;;;13.82;11.65;;;;;;;4.74;82.75;99019.53;10217157;28;20047;-61
2021/12/27 02:01:44;;;;;;;13.32;11.38;;;;;;;4.81;83.08;99033.94;10243702;23;20061;-66
2021/12/27 02:06:45;;;;;;;12.00;10.70;;;;;;;4.78;83.29;99023.63;10260797;28;20057;-66
2021/12/27 02:11:50;;;;;;;14.50;11.98;;;;;;;4.85;83.03;99014.28;10243006;28;20043;-67
2021/12/27 02:16:51;;;;;;;13.77;11.73;;;;;;;4.82;83.31;99011.88;10243568;28;20046;-66
2021/12/27 02:21:52;;;;;;;14.30;12.38;;;;;;;4.75;83.68;99008.88;10260556;28;20046;-66
2021/12/27 02:26:54;;;;;;;14.07;11.95;;;;;;;4.80;84.00;99020.88;10242580;28;20137;-65
2021/12/27 02:31:55;;;;;;;13.20;11.77;;;;;;;4.83;83.80;99018.81;10242582;28;20053;-67
2021/12/27 02:36:57;;;;;;;13.20;11.60;;;;;;;4.87;84.21;99022.91;10258174;28;20113;-67
2021/12/27 02:41:58;;;;;;;14.25;11.43;;;;;;;4.83;83.92;99000.38;10257394;28;20564;-65
2021/12/27 02:47:00;;;;;;;12.88;11.48;;;;;;;4.90;84.26;99009.50;10258637;28;20517;-66
2021/12/27 02:52:01;;;;;;;12.82;11.30;;;;;;;4.83;84.53;98997.72;10259064;28;20138;-66
2021/12/27 02:57:03;;;;;;;15.02;12.88;;;;;;;4.91;84.49;98998.00;10261629;28;20145;-66
2021/12/27 03:02:04;;;;;;;15.10;12.93;;;;;;;4.94;84.43;98996.94;10264270;28;20066;-65
2021/12/27 03:07:05;;;;;;;14.95;12.32;;;;;;;4.95;84.43;98986.25;10254738;28;20057;-66
2021/12/27 03:12:11;;;;;;;13.82;12.18;;;;;;;4.99;84.35;98988.66;10271169;28;20057;-66
2021/12/27 03:17:13;;;;;;;14.23;12.35;;;;;;;5.00;84.71;98985.03;10271917;28;20050;-67
2021/12/27 03:22:14;;;;;;;13.85;12.35;;;;;;;4.92;84.19;98972.44;10270292;28;20141;-66
2021/12/27 03:27:16;;;;;;;13.23;11.82;;;;;;;4.98;84.54;98979.88;10272414;28;20045;-66
2021/12/27 03:32:18;;;;;;;17.10;13.18;;;;;;;5.03;84.65;98979.53;10255004;28;20110;-67
2021/12/27 03:37:24;;;;;;;15.48;12.55;;;;;;;5.01;84.85;98981.47;10270225;28;20050;-66
2021/12/27 03:42:25;;;;;;;15.90;13.35;;;;;;;5.04;84.96;98986.50;10270679;28;20043;-67
2021/12/27 03:47:27;;;;;;;13.13;11.35;;;;;;;5.03;85.14;98974.25;10269087;28;20133;-66
2021/12/27 03:52:28;;;;;;;13.50;11.77;;;;;;;5.10;85.43;98981.59;10271828;28;20047;-66
2021/12/27 03:57:32;;;;;;;14.65;12.82;;;;;;;5.11;85.28;98977.16;10272467;28;20657;-65
2021/12/27 04:02:37;;;;;;;17.75;13.20;;;;;;;5.07;85.03;98978.34;10270526;28;20134;-66
2021/12/27 04:07:39;;;;;;;;;;;;;;;5.08;85.48;98978.22;10271800;28;20072;-66
2021/12/27 04:12:40;;;;;;;16.15;12.52;;;;;;;5.10;85.73;98975.47;10272129;28;19921;-65
2021/12/27 04:17:42;;;;;;;18.85;13.68;;;;;;;5.10;85.64;98975.47;10264029;28;20543;-66
2021/12/27 04:22:43;;;;;;;15.05;11.95;;;;;;;5.11;85.41;98966.59;10263827;28;20130;-66
2021/12/27 04:27:50;;;;;;;16.08;13.35;;;;;;;5.14;85.43;98969.00;10246453;28;20138;-66
2021/12/27 04:32:51;;;;;;;16.00;12.05;;;;;;;5.15;85.61;98960.13;10246836;28;20054;-67
2021/12/27 04:37:53;;;;;;;16.63;12.55;;;;;;;5.15;85.49;98968.03;10263357;28;20130;-65
2021/12/27 04:43:02;;;;;;;14.13;12.63;;;;;;;5.17;85.68;98966.09;10261376;28;20116;-65
2021/12/27 04:48:04;;;;;;;14.18;11.43;;;;;;;5.21;85.52;98953.50;10264239;28;20142;-66
2021/12/27 04:53:06;;;;;;;16.73;11.27;;;;;;;5.13;86.01;98959.38;10264538;28;20054;-66
2021/12/27 04:58:09;;;;;;;17.13;12.65;;;;;;;5.20;85.96;98963.22;10245916;28;20084;-67
2021/12/27 05:03:10;;;;;;;17.52;12.07;;;;;;;5.31;85.73;98968.50;10262853;28;21066;-66
2021/12/27 05:08:12;;;;;;;15.40;11.90;;;;;;;5.32;85.52;98953.50;10249391;28;20054;-66
2021/12/27 05:13:18;;;;;;;13.63;11.45;;;;;;;5.32;85.72;98943.78;10244746;28;20053;-67
2021/12/27 05:18:19;;;;;;;16.27;12.15;;;;;;;5.32;85.46;98938.50;10262865;28;20133;-66
2021/12/27 05:23:21;;;;;;;13.75;11.73;;;;;;;5.36;85.27;98932.97;10261906;28;20049;-65
2021/12/27 05:28:22;;;;;;;17.75;12.63;;;;;;;5.32;85.44;98927.94;10261882;28;20138;-65
2021/12/27 05:33:24;;;;;;;15.48;12.15;;;;;;;5.31;86.16;98925.44;10259167;28;20053;-68
2021/12/27 05:38:25;;;;;;;14.75;11.63;;;;;;;5.38;85.73;98915.25;10263435;28;20532;-65
2021/12/27 05:43:27;;;;;;;15.07;11.77;;;;;;;5.43;85.55;98913.06;10258213;28;20510;-67
2021/12/27 05:48:28;;;;;;;13.40;11.35;;;;;;;5.40;85.78;98910.66;10260309;28;20519;-66
2021/12/27 05:53:30;;;;;;;14.23;10.52;;;;;;;5.43;85.62;98915.69;10260462;28;20137;-64
2021/12/27 05:58:31;;;;;;;13.70;10.60;;;;;;;5.37;86.02;98913.56;10260497;28;20047;-67
2021/12/27 06:03:32;;;;;;;13.65;11.05;;;;;;;5.44;85.47;98905.00;10260803;28;20054;-65
2021/12/27 06:08:34;;;;;;;11.43;9.85;;;;;;;5.45;85.40;98900.56;10245776;28;20054;-64
2021/12/27 06:13:35;;;;;;;12.70;11.07;;;;;;;5.51;85.34;98893.97;10245210;28;20058;-63
2021/12/27 06:18:37;;;;;;;13.43;10.95;;;;;;;5.54;85.00;98888.44;10230251;28;20074;-63
2021/12/27 06:23:38;;;;;;;13.25;10.18;;;;;;;5.52;85.37;98890.38;10246980;28;20049;-62
2021/12/27 06:28:40;;;;;;;13.98;10.30;;;;;;;5.52;85.03;98895.66;10245248;28;20410;-62
2021/12/27 06:33:42;;;;;;;13.82;10.82;;;;;;;5.63;84.92;98903.50;10226468;28;20472;-63
2021/12/27 06:38:43;;;;;;;11.70;10.00;;;;;;;5.62;84.85;98904.50;10242830;28;20744;-63
2021/12/27 06:43:45;;;;;;;10.75;9.65;;;;;;;5.65;84.37;98897.16;10230633;28;20054;-62
2021/12/27 06:48:46;;;;;;;12.43;10.40;;;;;;;5.68;84.32;98911.09;10245371;28;20413;-62
2021/12/27 06:53:48;;;;;;;14.75;11.20;;;;;;;5.64;84.35;98898.13;10243009;28;20058;-63
2021/12/27 06:58:49;;;;;;;11.18;9.98;;;;;;;5.67;84.50;98899.66;10244876;28;20051;-63
2021/12/27 07:03:51;;;;;;;11.63;9.93;;;;;;;5.62;84.50;98892.13;10243572;28;20061;-62
2021/12/27 07:08:52;;;;;;;11.65;10.20;;;;;;;5.62;84.53;98883.38;10242564;28;20602;-63
2021/12/27 07:13:53;;;;;;;10.85;9.75;;;;;;;5.69;84.61;98888.97;10245782;28;20060;-62
2021/12/27 07:18:55;;;;;;;11.98;10.68;;;;;;;5.73;84.09;98887.78;10244148;28;20053;-61
2021/12/27 07:23:56;;;;;;;11.60;10.35;;;;;;;5.74;84.18;98900.03;10244068;28;20149;-62
2021/12/27 07:28:58;;;;;;;10.43;9.32;;;;;;;5.71;84.33;98884.44;10228945;28;20065;-62
2021/12/27 07:34:00;;;;;;;10.27;9.15;;;;;;;5.69;84.45;98886.34;10229922;28;20424;-64
2021/12/27 07:39:02;;;;;;;11.95;9.45;;;;;;;5.78;84.16;98885.56;10243581;28;20066;-62
2021/12/27 07:44:04;;;;;;;10.45;9.27;;;;;;;5.82;84.28;98889.66;10244863;28;20059;-62
2021/12/27 07:49:05;;;;;;;11.20;9.70;;;;;;;5.79;84.06;98877.53;10247847;28;20059;-64
2021/12/27 07:54:07;;;;;;;10.23;9.20;;;;;;;5.82;84.01;98887.88;10237261;28;20065;-62
2021/12/27 07:59:09;;;;;;;10.77;9.30;;;;;;;5.78;84.41;98881.16;10252259;28;20069;-63
2021/12/27 08:04:11;;;;;;;9.82;8.82;;;;;;;5.81;84.58;98895.88;10248652;28;20138;-64
2021/12/27 08:09:12;;;;;;;10.27;8.95;;;;;;;5.85;84.36;98881.47;10249959;28;20145;-65
2021/12/27 08:14:14;;;;;;;10.25;8.88;;;;;;;5.87;84.33;98889.25;10249633;28;20043;-64
2021/12/27 08:19:16;;;;;;;10.57;9.48;;;;;;;5.89;84.06;98888.19;10251593;28;20427;-64
2021/12/27 08:24:18;;;;;;;10.57;9.30;;;;;;;5.94;84.54;98880.69;10253374;28;20118;-63
2021/12/27 08:29:19;;;;;;;11.80;10.60;;;;;;;5.99;83.97;98883.00;10226149;28;20050;-64
2021/12/27 08:34:21;;;;;;;11.13;9.88;;;;;;;5.99;84.20;98883.84;10251731;28;20047;-63
2021/12/27 08:39:25;;;;;;;9.70;8.77;;;;;;;6.06;84.01;98878.06;10250146;28;20043;-62
2021/12/27 08:44:26;;;;;;;9.98;8.98;;;;;;;6.01;84.24;98881.09;10249474;28;20059;-62
2021/12/27 08:49:29;;;;;;;10.25;9.20;;;;;;;6.00;84.51;98885.53;10250231;28;20154;-63
2021/12/27 08:54:30;;;;;;;9.15;8.30;;;;;;;5.98;84.44;98879.53;10250607;28;20544;-64
2021/12/27 08:59:32;;;;;;;9.52;8.43;;;;;;;5.98;84.50;98881.34;10251492;28;20133;-63
2021/12/27 09:04:33;;;;;;;10.82;9.60;;;;;;;5.98;84.75;98866.31;10250097;28;20054;-61
2021/12/27 09:09:35;;;;;;;11.13;9.35;;;;;;;6.10;84.89;98853.06;10248020;28;20258;-63
2021/12/27 09:14:36;;;;;;;9.93;8.68;;;;;;;6.13;84.08;98858.91;10243341;28;20490;-62
2021/12/27 09:19:38;;;;;;;13.05;10.23;;;;;;;6.17;84.42;98843.63;10247204;28;20543;-62
2021/12/27 09:24:39;;;;;;;11.23;9.32;;;;;;;6.21;84.28;98855.63;10245476;28;20051;-63
2021/12/27 09:29:42;;;;;;;10.75;9.32;;;;;;;6.23;84.59;98871.34;10246651;28;20063;-63
2021/12/27 09:34:44;;;;;;;10.88;9.38;;;;;;;6.36;85.93;98867.56;10246811;28;20050;-62
2021/12/27 09:39:52;;;;;;;12.40;10.18;;;;;;;6.48;84.42;98862.16;10245783;28;20046;-62
2021/12/27 09:44:56;;;;;;;9.50;8.45;;;;;;;6.52;83.93;98853.00;10239239;28;20057;-64
2021/12/27 09:49:58;;;;;;;10.68;9.35;;;;;;;6.46;84.19;98851.72;10245161;28;21665;-62
2021/12/27 09:55:03;;;;;;;11.95;10.75;;;;;;;6.39;84.13;98847.09;10244678;28;20480;-62
2021/12/27 10:00:06;;;;;;;11.15;9.95;;;;;;;6.35;84.47;98842.06;10248382;28;20055;-63
2021/12/27 10:05:08;;;;;;;12.30;10.70;;;;;;;6.36;84.95;98819.97;10242531;28;20054;-65
2021/12/27 10:10:10;;;;;;;13.10;10.57;;;;;;;6.43;85.15;98822.09;10243519;28;20503;-63
2021/12/27 10:15:14;;;;;;;12.15;10.50;;;;;;;6.47;85.22;98816.41;10241967;28;21337;-63
2021/12/27 10:20:19;;;;;;;12.82;10.55;;;;;;;6.49;85.15;98811.81;10243518;28;20046;-65
2021/12/27 10:25:25;;;;;;;12.63;10.73;;;;;;;6.50;85.29;98810.00;10241609;28;20527;-62
2021/12/27 10:30:30;;;;;;;11.40;10.18;;;;;;;6.52;85.42;98808.06;10244512;28;20054;-63
2021/12/27 10:35:39;;;;;;;11.80;10.48;;;;;;;6.60;85.88;98812.69;10241863;28;20050;-63
2021/12/27 10:40:51;;;;;;;11.73;10.32;;;;;;;6.67;85.53;98803.25;10219518;28;20040;-64
2021/12/27 10:45:59;;;;;;;11.75;10.18;;;;;;;6.68;85.61;98789.91;10238857;28;20038;-63
2021/12/27 10:51:02;;;;;;;13.45;10.80;;;;;;;6.71;85.87;98784.34;10241067;28;20062;-63
2021/12/27 10:56:03;;;;;;;9.95;8.95;;;;;;;6.90;85.36;98780.06;10241459;28;20061;-63
2021/12/27 11:01:09;;;;;;;13.00;10.25;;;;;;;6.94;85.64;98789.41;10239792;28;20702;-63
2021/12/27 11:06:13;;;;;;;12.15;10.90;;;;;;;6.97;85.26;98781.19;10242267;28;20046;-64
2021/12/27 11:11:17;;;;;;;12.00;10.77;;;;;;;6.95;85.61;98775.22;10237838;28;20043;-64
2021/12/27 11:16:19;;;;;;;11.68;10.52;;;;;;;7.04;85.70;98771.75;10242671;28;20298;-63
2021/12/27 11:21:33;;;;;;;13.15;11.80;;;;;;;7.08;85.74;98765.19;10238495;28;20552;-63
2021/12/27 11:26:37;;;;;;;13.15;11.90;;;;;;;7.14;85.83;98753.22;10222029;28;20053;-64
2021/12/27 11:31:39;;;;;;;14.55;11.65;;;;;;;7.21;86.32;98753.50;10246307;28;20070;-64
2021/12/27 11:36:47;;;;;;;12.32;10.73;;;;;;;7.33;85.91;98756.84;10231760;28;20054;-64
2021/12/27 11:42:11;;;;;;;12.75;11.35;;;;;;;7.40;86.09;98758.81;10229170;28;20073;-64
2021/12/27 11:47:22;;;;;;;12.70;11.40;;;;;;;7.60;86.30;98753.50;10244883;28;20042;-64
2021/12/27 11:52:29;;;;;;;13.50;12.10;;;;;;;7.65;86.04;98761.84;10245968;28;20402;-64
2021/12/27 11:57:39;;;;;;;13.25;11.85;;;;;;;7.60;86.27;98756.97;10243976;28;20051;-64
2021/12/27 12:02:52;;;;;;;14.85;13.35;;;;;;;7.56;86.50;98760.03;10245645;28;20054;-63
2021/12/27 12:07:54;;;;;;;15.10;12.80;;;;;;;7.56;86.94;98744.16;10267109;23;20214;-55
2021/12/27 12:13:17;;;;;;;15.15;13.05;;;;;;;7.63;86.88;98737.31;10210340;28;20046;-56
2021/12/27 12:18:19;;;;;;;12.10;10.88;;;;;;;7.82;87.13;98727.66;10204723;28;20066;-55
2021/12/27 12:23:21;;;;;;;11.00;9.90;;;;;;;7.95;86.39;98725.53;10202645;28;20380;-56
2021/12/27 12:28:22;;;;;;;11.25;10.00;;;;;;;7.99;85.97;98708.38;10199649;28;20732;-55
2021/12/27 12:33:29;;;;;;;12.35;9.82;;;;;;;8.10;86.49;98721.44;10203084;28;20435;-55
2021/12/27 12:38:36;;;;;;;9.25;8.30;;;;;;;7.97;87.00;98710.31;10202395;28;20095;-55
2021/12/27 12:43:50;;;;;;;11.85;9.90;;;;;;;7.99;87.46;98720.75;10188530;28;20418;-56
2021/12/27 12:49:12;;;;;;;9.23;7.67;;;;;;;7.92;87.10;98723.16;10193234;28;20078;-55
2021/12/27 12:54:23;;;;;;;8.80;7.97;;;;;;;7.93;87.71;98720.38;10194083;28;20760;-56
2021/12/27 12:59:30;;;;;;;9.05;8.07;;;;;;;7.93;87.37;98714.25;10207853;28;20051;-56
2021/12/27 13:04:56;;;;;;;9.02;8.13;;;;;;;7.94;87.50;98706.16;10204116;28;20121;-55
2021/12/27 13:09:58;;;;;;;8.50;7.60;;;;;;;7.98;87.70;98696.09;10209046;28;20709;-56
2021/12/27 13:15:18;;;;;;;8.02;7.22;;;;;;;8.05;87.44;98705.13;10202216;28;20158;-56
2021/12/27 13:20:19;;;;;;;7.93;6.85;;;;;;;8.10;86.86;98702.88;10193113;28;20054;-56
2021/12/27 13:25:30;;;;;;;8.35;7.55;;;;;;;8.11;86.76;98699.25;10206245;28;20737;-57
2021/12/27 13:30:43;;;;;;;7.85;7.05;;;;;;;8.06;87.46;98704.16;10202391;28;20047;-57
2021/12/27 13:35:44;;;;;;;7.45;6.75;;;;;;;7.91;87.21;98676.44;10203599;28;20471;-56
2021/12/27 13:40:49;;;;;;;6.70;6.07;;;;;;;8.13;86.76;98689.31;10207240;28;20098;-56
2021/12/27 13:45:51;;;;;;;6.57;5.55;;;;;;;8.10;86.10;98696.75;10213245;28;20109;-56
2021/12/27 13:50:53;;;;;;;6.72;6.13;;;;;;;8.10;86.38;98697.56;10204637;28;20102;-56
2021/12/27 13:56:07;;;;;;;7.03;6.38;;;;;;;8.25;86.31;98700.56;10203168;28;20279;-57
2021/12/27 14:01:14;;;;;;;7.05;6.22;;;;;;;8.34;85.88;98687.44;10197544;28;20496;-55
2021/12/27 14:06:18;;;;;;;7.97;7.15;;;;;;;8.26;85.58;98683.69;10187372;28;20253;-56
2021/12/27 14:11:21;;;;;;;7.32;6.63;;;;;;;8.26;85.83;98690.84;10203806;28;20066;-55
2021/12/27 14:16:40;;;;;;;8.02;7.22;;;;;;;8.12;85.85;98687.69;10201145;28;20134;-57
2021/12/27 14:22:00;;;;;;;7.80;7.00;;;;;;;8.12;86.33;98685.03;10200554;28;20149;-57
2021/12/27 14:27:04;;;;;;;7.35;6.65;;;;;;;8.14;86.22;98691.00;10196915;28;20058;-56
2021/12/27 14:32:07;;;;;;;6.70;6.00;;;;;;;8.07;86.56;98692.56;10207099;28;20182;-57
2021/12/27 14:37:10;;;;;;;7.32;6.05;;;;;;;8.05;86.49;98688.41;10201261;28;20201;-60
2021/12/27 14:42:13;;;;;;;8.05;6.57;;;;;;;8.04;86.16;98692.84;10199493;28;20292;-57
2021/12/27 14:47:18;;;;;;;6.53;5.90;;;;;;;7.96;86.46;98706.00;10201796;28;20242;-56
2021/12/27 14:52:20;;;;;;;7.40;6.68;;;;;;;7.95;87.00;98694.56;10196997;28;20190;-56
2021/12/27 14:57:36;;;;;;;8.65;7.05;;;;;;;7.91;86.94;98687.91;10185476;28;20059;-57
2021/12/27 15:02:38;;;;;;;7.78;6.45;;;;;;;7.90;87.30;98686.22;10202231;28;20134;-56
2021/12/27 15:07:40;;;;;;;6.90;6.30;;;;;;;7.93;87.59;98677.16;10202843;28;20506;-56
2021/12/27 15:12:42;;;;;;;8.35;7.47;;;;;;;7.91;88.28;98676.44;10199323;28;20063;-56
2021/12/27 15:17:43;;;;;;;8.05;7.30;;;;;;;7.85;88.44;98677.03;10185935;28;20106;-56
2021/12/27 15:22:44;;;;;;;8.73;7.85;;;;;;;7.82;88.42;98678.19;10203205;28;20190;-57
2021/12/27 15:27:46;;;;;;;7.95;7.25;;;;;;;7.74;88.56;98681.53;10195779;28;20139;-58
2021/12/27 15:32:48;;;;;;;8.93;8.02;;;;;;;7.69;88.56;98673.19;10200800;28;20130;-56
2021/12/27 15:37:50;;;;;;;8.52;7.72;;;;;;;7.80;88.31;98680.13;10183912;28;20171;-57
2021/12/27 15:42:55;;;;;;;8.32;7.53;;;;;;;7.84;88.19;98693.94;10205770;28;20324;-57
2021/12/27 15:47:56;;;;;;;;;;;;;;;7.83;87.85;98692.25;10204333;28;21640;-57
2021/12/27 15:52:57;;;;;;;9.32;8.43;;;;;;;7.83;87.48;98686.94;10183571;28;20029;-56
2021/12/27 15:57:59;;;;;;;10.48;8.68;;;;;;;7.78;87.22;98682.09;10203484;28;20059;-57
2021/12/27 16:03:01;;;;;;;9.60;8.70;;;;;;;7.57;87.08;98663.75;10203454;28;20110;-57
2021/12/27 16:08:03;;;;;;;11.85;9.60;;;;;;;7.73;86.85;98679.03;10199072;28;20509;-56
2021/12/27 16:13:05;;;;;;;10.88;9.50;;;;;;;7.72;87.03;98677.38;10205499;28;20326;-55
2021/12/27 16:18:06;;;;;;;11.05;9.20;;;;;;;7.63;87.04;98694.09;10208157;28;20055;-57
2021/12/27 16:23:08;;;;;;;10.48;9.48;;;;;;;7.61;86.80;98697.75;10207636;28;20635;-57
2021/12/27 16:28:10;;;;;;;10.60;9.40;;;;;;;7.65;87.13;98698.28;10207962;28;20133;-56
2021/12/27 16:33:13;;;;;;;10.45;9.35;;;;;;;7.62;86.93;98703.84;10207097;28;20153;-56
2021/12/27 16:38:16;;;;;;;11.73;10.60;;;;;;;7.59;86.52;98698.84;10204640;28;20576;-55
2021/12/27 16:43:18;;;;;;;11.02;9.57;;;;;;;7.53;86.84;98694.94;10207454;28;20074;-56
2021/12/27 16:48:28;;;;;;;12.57;9.82;;;;;;;7.54;87.02;98703.75;10196702;28;20186;-57
2021/12/27 16:53:31;;;;;;;11.00;9.95;;;;;;;7.59;87.05;98698.84;10200278;28;20126;-56
2021/12/27 16:58:32;;;;;;;12.63;11.43;;;;;;;7.58;86.88;98702.47;10203957;28;20631;-56
2021/12/27 17:03:34;;;;;;;12.18;10.88;;;;;;;7.61;86.95;98695.09;10207224;28;20195;-56
2021/12/27 17:08:35;;;;;;;11.57;10.35;;;;;;;7.66;86.90;98699.97;10192016;28;20074;-56
2021/12/27 17:13:37;;;;;;;12.93;11.63;;;;;;;7.62;86.16;98698.56;10202523;28;20070;-56
2021/12/27 17:18:38;;;;;;;12.20;10.57;;;;;;;7.63;86.18;98705.53;10206187;28;20433;-55
2021/12/27 17:23:40;;;;;;;12.27;11.00;;;;;;;7.54;86.43;98690.50;10209173;28;20604;-56
2021/12/27 17:28:42;;;;;;;13.32;11.55;;;;;;;7.50;86.83;98705.00;10205188;28;20059;-56
2021/12/27 17:33:44;;;;;;;13.15;11.82;;;;;;;7.48;86.83;98697.19;10193503;28;20463;-56
2021/12/27 17:38:45;;;;;;;13.80;12.40;;;;;;;7.51;86.96;98696.91;10207595;28;20047;-56
2021/12/27 17:43:47;;;;;;;13.95;12.55;;;;;;;7.46;87.15;98693.03;10200276;28;20215;-56
2021/12/27 17:48:48;;;;;;;14.43;11.88;;;;;;;7.47;87.34;98705.28;10204737;28;20051;-57
2021/12/27 17:53:49;;;;;;;13.43;11.57;;;;;;;7.51;86.93;98701.38;10201805;28;20163;-56
2021/12/27 17:58:51;;;;;;;13.93;12.57;;;;;;;7.54;86.87;98701.09;10205343;28;20137;-55
2021/12/27 18:03:53;;;;;;;14.30;12.80;;;;;;;7.56;86.94;98710.56;10192880;28;20652;-55
2021/12/27 18:08:54;;;;;;;17.92;15.30;;;;;;;7.53;86.68;98704.72;10200686;28;20137;-62
2021/12/27 18:13:59;;;;;;;15.52;13.88;;;;;;;7.56;87.05;98699.13;10205425;28;20059;-56
2021/12/27 18:19:01;;;;;;;15.77;13.40;;;;;;;7.49;87.05;98684.78;10184540;28;20135;-56
2021/12/27 18:24:05;;;;;;;16.02;13.32;;;;;;;7.42;87.15;98666.84;10196388;28;20055;-56
2021/12/27 18:29:07;;;;;;;15.57;13.50;;;;;;;7.53;87.02;98691.47;10191709;28;20588;-56
2021/12/27 18:34:08;;;;;;;14.07;12.55;;;;;;;7.60;87.28;98700.53;10203088;28;20484;-55
2021/12/27 18:39:10;;;;;;;14.10;12.52;;;;;;;7.57;86.68;98690.22;10205751;28;21058;-54
2021/12/27 18:44:13;;;;;;;15.50;12.85;;;;;;;7.69;86.69;98693.53;10209689;28;20140;-57
2021/12/27 18:49:15;;;;;;;14.30;12.80;;;;;;;7.66;86.88;98696.50;10182062;28;20547;-55
2021/12/27 18:54:17;;;;;;;15.88;14.00;;;;;;;7.69;86.74;98689.06;10204762;28;20062;-55
2021/12/27 18:59:20;;;;;;;14.40;12.23;;;;;;;7.71;86.75;98687.09;10201395;28;20115;-56
2021/12/27 19:04:23;;;;;;;15.68;14.07;;;;;;;7.73;86.37;98679.88;10201601;28;20063;-56
2021/12/27 19:09:25;;;;;;;14.93;13.40;;;;;;;7.77;86.38;98686.53;10206877;28;20126;-56
2021/12/27 19:14:26;;;;;;;15.00;13.32;;;;;;;7.68;86.22;98675.97;10189334;28;20648;-57
2021/12/27 19:19:28;;;;;;;17.15;15.32;;;;;;;7.79;86.22;98686.38;10207125;28;20105;-57
2021/12/27 19:24:31;;;;;;;15.13;13.43;;;;;;;7.77;87.13;98688.34;10198925;28;20113;-55
2021/12/27 19:29:33;;;;;;;15.18;13.55;;;;;;;7.85;87.14;98683.19;10198487;28;20053;-56
2021/12/27 19:34:34;;;;;;;16.05;14.35;;;;;;;7.79;86.96;98689.88;10199060;28;20520;-57
2021/12/27 19:39:36;;;;;;;16.27;13.93;;;;;;;7.78;87.06;98698.81;10209257;28;20150;-55
2021/12/27 19:44:37;;;;;;;17.60;15.40;;;;;;;7.76;87.66;98692.81;10212822;28;20175;-57
2021/12/27 19:49:40;;;;;;;17.05;15.35;;;;;;;7.77;87.90;98697.13;10213912;28;20590;-61
2021/12/27 19:54:42;;;;;;;17.23;15.43;;;;;;;7.70;88.40;98684.59;10222584;28;20069;-57
2021/12/27 19:59:43;;;;;;;17.70;14.27;;;;;;;7.78;88.99;98690.03;10209517;28;20147;-55
2021/12/27 20:04:45;;;;;;;17.73;15.90;;;;;;;7.75;89.37;98675.25;10228673;28;20206;-57
2021/12/27 20:09:47;;;;;;;15.60;13.98;;;;;;;7.77;89.32;98680.41;10217040;28;20062;-57
2021/12/27 20:14:49;;;;;;;17.88;15.98;;;;;;;7.77;89.55;98673.28;10213323;28;20066;-56
2021/12/27 20:19:51;;;;;;;15.30;13.52;;;;;;;7.73;89.91;98671.94;10223372;28;20122;-57
2021/12/27 20:24:53;;;;;;;16.58;14.82;;;;;;;7.72;90.07;98661.47;10208927;28;20127;-58
2021/12/27 20:29:54;;;;;;;17.00;15.25;;;;;;;7.77;90.39;98659.22;10214211;28;20158;-56
2021/12/27 20:34:57;;;;;;;19.55;16.02;;;;;;;7.87;90.13;98660.03;10236039;28;20129;-57
2021/12/27 20:39:59;;;;;;;19.50;17.02;;;;;;;7.84;90.37;98664.78;10214998;28;20066;-59
2021/12/27 20:45:07;;;;;;;18.17;16.17;;;;;;;7.81;90.87;98665.91;10198957;28;20059;-56
2021/12/27 20:50:11;;;;;;;18.40;16.45;;;;;;;7.73;91.34;98658.69;10210673;28;20067;-58
2021/12/27 20:55:14;;;;;;;17.03;15.17;;;;;;;7.76;91.94;98652.25;10217601;28;20518;-57
2021/12/27 21:00:22;;;;;;;19.08;16.70;;;;;;;7.75;92.04;98651.41;10213599;28;20087;-56
2021/12/27 21:05:29;;;;;;;19.48;17.40;;;;;;;7.77;92.58;98660.03;10204181;28;20753;-57
2021/12/27 21:10:31;;;;;;;18.98;16.85;;;;;;;7.71;92.50;98644.72;10203833;28;20047;-57
2021/12/27 21:15:33;;;;;;;23.65;17.27;;;;;;;7.47;92.14;98609.97;10204402;28;20106;-56
2021/12/27 21:20:54;;;;;;;18.52;16.50;;;;;;;7.77;92.46;98653.91;10208615;28;20055;-54
2021/12/27 21:25:57;;;;;;;20.50;16.42;;;;;;;7.73;92.96;98648.09;10209157;28;20433;-56
2021/12/27 21:30:59;;;;;;;20.00;17.10;;;;;;;7.71;93.33;98644.72;10203002;28;20138;-55
2021/12/27 21:36:00;;;;;;;17.83;15.82;;;;;;;7.67;92.79;98622.19;10207930;28;20058;-56
2021/12/27 21:41:02;;;;;;;17.80;15.90;;;;;;;7.81;93.11;98654.44;10209674;28;20755;-56
2021/12/27 21:46:04;;;;;;;16.05;14.45;;;;;;;7.81;92.88;98649.16;10213309;28;20202;-56
2021/12/27 21:51:05;;;;;;;17.27;15.55;;;;;;;7.81;93.18;98652.66;10219814;28;20059;-57
2021/12/27 21:56:07;;;;;;;17.83;15.93;;;;;;;7.85;93.03;98651.41;10205890;28;20055;-57
2021/12/27 22:01:09;;;;;;;17.60;15.40;;;;;;;7.90;93.11;98664.22;10210287;28;20169;-56
2021/12/27 22:06:10;;;;;;;15.32;13.73;;;;;;;7.94;93.09;98645.22;10210870;28;20046;-55
2021/12/27 22:11:12;;;;;;;15.60;13.93;;;;;;;7.98;93.10;98656.34;10210438;28;20154;-57
2021/12/27 22:16:14;;;;;;;17.48;15.63;;;;;;;7.98;93.44;98666.94;10187236;28;20066;-56
2021/12/27 22:21:16;;;;;;;14.88;13.30;;;;;;;8.07;92.82;98657.28;10204335;28;20125;-56
2021/12/27 22:26:17;;;;;;;15.73;13.80;;;;;;;8.07;92.92;98666.06;10186556;28;20055;-56
2021/12/27 22:31:19;;;;;;;13.73;12.32;;;;;;;7.99;93.17;98655.38;10208453;28;20117;-56
2021/12/27 22:36:21;;;;;;;13.25;11.90;;;;;;;8.13;92.62;98656.69;10205938;28;20519;-54
2021/12/27 22:41:22;;;;;;;13.68;12.13;;;;;;;8.20;91.86;98654.31;10208045;28;20064;-56
2021/12/27 22:46:23;;;;;;;14.63;13.07;;;;;;;8.22;92.15;98649.69;10205397;28;20158;-55
2021/12/27 22:51:25;;;;;;;12.77;11.40;;;;;;;8.23;92.45;98638.13;10213783;28;20457;-55
2021/12/27 23:02:49;;;;;;;15.90;14.25;;;;;;;8.29;92.06;98621.59;10263214;28;20142;-60
2021/12/27 23:07:50;;;;;;;13.98;12.57;;;;;;;8.32;92.02;98632.75;10268882;28;20098;-61
2021/12/27 23:12:52;;;;;;;14.77;13.38;;;;;;;8.37;91.91;98619.03;10263853;28;20137;-59
2021/12/27 23:17:54;;;;;;;14.88;13.38;;;;;;;8.36;91.81;98617.38;10289122;23;20057;-63
2021/12/27 23:22:55;;;;;;;14.32;12.88;;;;;;;8.39;91.99;98611.78;10274311;28;20059;-63
2021/12/27 23:28:03;;;;;;;15.18;13.57;;;;;;;8.42;91.87;98603.53;10238302;29;20429;-64